X  Zamknij Lotniskowe dane METAR     KBFM Mobile Downtown Airport
Temperatura
79°F Temperatura
73°F Punkt rosy
84% Wilgotność



Wiatr
0 MPH
0 KM/H
0 M/S
0 KTS



Cisza
N
Warunki bieżące

Lekkie zachmurzenie Lekkie zachmurzenie
Ciśnienie 1014.52 (hPa) - 29.96 (inHg)
Widoczność 10 (mil) - 16.1 (km)
Lotnisko
Kod lotniska KBFM

Położenie: Mobile Downtown Airport
Odległość: 8 (mi)

Metar:
KBFM 190153Z 00000KT 10SM SCT090 BKN110 26/23 A2996 RMK AO2 SLP143 T02560233

Czas: 18-08-2022 8:53 pm CDT